Time;durP1;ratioP1;P1;durP2;ratioP2;P2;SDS_P1;SDS_P2;PMS_P1;PMS_P2;Temp;Humidity;BMP_temperature;BMP_pressure;BME280_temperature;BME280_humidity;BME280_pressure;Samples;Min_cycle;Max_cycle;Signal;HPM_P1;HPM_P2
2023/08/18 00:02:15;;;;;;;11.80;9.77;;;;;;;-148.15;100.00;61821.78;4971039;28;20058;-90
2023/08/18 00:04:41;;;;;;;14.43;10.23;;;;;;;-148.15;100.00;61821.78;4974890;28;20031;-89
2023/08/18 00:07:07;;;;;;;11.02;9.77;;;;;;;-148.15;100.00;61821.78;4984438;28;20522;-91
2023/08/18 00:09:32;;;;;;;10.30;9.10;;;;;;;-148.15;100.00;61821.78;4971349;28;20030;-90
2023/08/18 00:11:57;;;;;;;13.03;9.73;;;;;;;-148.15;100.00;61821.78;4971002;28;20023;-91
2023/08/18 00:14:23;;;;;;;15.73;9.90;;;;;;;-148.15;100.00;61821.78;4971586;28;20066;-90
2023/08/18 00:16:48;;;;;;;13.87;9.67;;;;;;;-148.15;100.00;61821.78;4970387;28;20035;-90
2023/08/18 00:19:13;;;;;;;11.90;9.40;;;;;;;-148.15;100.00;61821.78;4971657;28;20030;-90
2023/08/18 00:21:40;;;;;;;10.07;8.40;;;;;;;-148.15;100.00;61821.78;4968784;28;20459;-91
2023/08/18 00:24:05;;;;;;;14.05;8.73;;;;;;;-148.15;100.00;61821.78;4971552;28;20023;-90
2023/08/18 00:26:31;;;;;;;11.00;8.73;;;;;;;-148.15;100.00;61821.78;4970604;28;20082;-91
2023/08/18 00:28:56;;;;;;;10.83;9.17;;;;;;;-148.15;100.00;61821.78;4971198;28;20202;-90
2023/08/18 00:31:21;;;;;;;14.73;9.07;;;;;;;-148.15;100.00;61821.78;4973120;28;20066;-90
2023/08/18 00:33:47;;;;;;;12.30;8.77;;;;;;;-148.15;100.00;61821.78;4971630;28;20306;-90
2023/08/18 00:36:12;;;;;;;11.70;9.03;;;;;;;-148.15;100.00;61821.78;4982612;28;20034;-90
2023/08/18 00:38:37;;;;;;;11.90;9.67;;;;;;;-148.15;100.00;61821.78;4973785;28;20065;-90
2023/08/18 00:41:03;;;;;;;12.87;9.07;;;;;;;-148.15;100.00;61821.78;4972232;28;20030;-90
2023/08/18 00:43:28;;;;;;;12.30;9.15;;;;;;;-148.15;100.00;61821.78;4988108;28;20057;-90
2023/08/18 00:45:54;;;;;;;11.37;9.07;;;;;;;-148.15;100.00;61821.78;4989485;28;20030;-90
2023/08/18 00:48:21;;;;;;;11.05;9.50;;;;;;;-148.15;100.00;61821.78;4990627;28;20042;-91
2023/08/18 00:50:46;;;;;;;11.50;8.43;;;;;;;-148.15;100.00;61821.78;4989647;28;20030;-91
2023/08/18 00:53:12;;;;;;;12.00;9.10;;;;;;;-148.15;100.00;61821.78;4987035;28;20808;-90
2023/08/18 00:55:37;;;;;;;10.80;8.67;;;;;;;-148.15;100.00;61821.78;4969949;28;20089;-90
2023/08/18 00:58:03;;;;;;;10.52;8.93;;;;;;;-148.15;100.00;61821.78;4971973;28;20045;-91
2023/08/18 01:00:29;;;;;;;10.13;8.50;;;;;;;-148.15;100.00;61821.78;4974031;28;20031;-91
2023/08/18 01:02:54;;;;;;;9.95;8.95;;;;;;;-148.15;100.00;61821.78;4975238;28;20034;-90
2023/08/18 01:05:20;;;;;;;12.83;8.83;;;;;;;-148.15;100.00;61821.78;4979722;28;20037;-91
2023/08/18 01:07:46;;;;;;;12.23;9.33;;;;;;;-148.15;100.00;61821.78;4995368;28;20128;-90
2023/08/18 01:10:12;;;;;;;10.05;8.65;;;;;;;-148.15;100.00;61821.78;4974926;28;20046;-89
2023/08/18 01:12:52;;;;;;;10.50;8.95;;;;;;;-148.15;100.00;61821.78;4955013;28;20028;-91
2023/08/18 01:15:36;;;;;;;10.88;8.88;;;;;;;-148.15;100.00;61821.78;4955011;29;20041;-91
2023/08/18 01:18:03;;;;;;;9.63;8.60;;;;;;;-148.15;100.00;61821.78;4955154;29;20026;-90
2023/08/18 01:20:29;;;;;;;10.85;9.05;;;;;;;-148.15;100.00;61821.78;4960292;28;20399;-90
2023/08/18 01:22:59;;;;;;;9.90;8.50;;;;;;;-148.15;100.00;61821.78;4974261;28;20526;-90
2023/08/18 01:25:25;;;;;;;9.70;8.37;;;;;;;-148.15;100.00;61821.78;4974328;28;20031;-90
2023/08/18 01:27:54;;;;;;;11.10;8.70;;;;;;;-148.15;100.00;61821.78;4974348;28;20909;-91
2023/08/18 01:30:20;;;;;;;11.70;8.40;;;;;;;-148.15;100.00;61821.78;4975006;28;20116;-90
2023/08/18 01:33:13;;;;;;;12.23;9.02;;;;;;;-148.15;100.00;61821.78;4975906;28;20457;-91
2023/08/18 01:35:39;;;;;;;10.75;8.75;;;;;;;-148.15;100.00;61821.78;4982537;28;20049;-89
2023/08/18 01:38:05;;;;;;;11.10;8.70;;;;;;;-148.15;100.00;61821.78;4994884;28;20454;-91
2023/08/18 01:40:33;;;;;;;15.32;9.65;;;;;;;-148.15;100.00;61821.78;4993614;28;20130;-90
2023/08/18 01:42:58;;;;;;;11.98;8.77;;;;;;;-148.15;100.00;61821.78;4989458;28;20470;-90
2023/08/18 01:45:24;;;;;;;11.20;9.00;;;;;;;-148.15;100.00;61821.78;4939300;29;20050;-90
2023/08/18 01:47:50;;;;;;;13.00;9.40;;;;;;;-148.15;100.00;61821.78;4969788;28;20413;-90
2023/08/18 01:50:15;;;;;;;11.50;9.07;;;;;;;-148.15;100.00;61821.78;4973598;28;20107;-91
2023/08/18 01:52:40;;;;;;;11.03;8.40;;;;;;;-148.15;100.00;61821.78;4973947;28;20298;-91
2023/08/18 01:55:06;;;;;;;11.10;9.20;;;;;;;-148.15;100.00;61821.78;4985627;28;20044;-90
2023/08/18 01:57:32;;;;;;;10.10;9.07;;;;;;;-148.15;100.00;61821.78;4998949;28;20065;-91
2023/08/18 01:59:58;;;;;;;9.90;8.38;;;;;;;-148.15;100.00;61821.78;5007974;28;20086;-91
2023/08/18 02:02:23;;;;;;;10.27;9.10;;;;;;;-148.15;100.00;61821.78;4994597;28;20022;-92
2023/08/18 02:04:48;;;;;;;11.13;9.07;;;;;;;-148.15;100.00;61821.78;4985283;28;20027;-92
2023/08/18 02:07:14;;;;;;;11.67;9.10;;;;;;;-148.15;100.00;61821.78;4988583;28;20115;-92
2023/08/18 02:09:39;;;;;;;10.80;9.73;;;;;;;-148.15;100.00;61821.78;4992677;28;20044;-92
2023/08/18 02:12:07;;;;;;;10.67;8.90;;;;;;;-148.15;100.00;61821.78;4993777;28;20030;-93
2023/08/18 02:14:32;;;;;;;11.15;9.48;;;;;;;-148.15;100.00;61821.78;4988001;28;20057;-92
2023/08/18 02:16:58;;;;;;;10.53;9.17;;;;;;;-148.15;100.00;61821.78;4989904;28;20066;-92
2023/08/18 02:19:23;;;;;;;10.43;9.25;;;;;;;-148.15;100.00;61821.78;4993338;28;20057;-92
2023/08/18 02:21:49;;;;;;;12.10;9.63;;;;;;;-148.15;100.00;61821.78;5001825;28;20037;-90
2023/08/18 02:24:14;;;;;;;12.47;10.10;;;;;;;-148.15;100.00;61821.78;4989167;28;20082;-92
2023/08/18 02:26:40;;;;;;;14.90;9.67;;;;;;;-148.15;100.00;61821.78;4975581;28;20494;-92
2023/08/18 02:29:05;;;;;;;12.63;10.07;;;;;;;-148.15;100.00;61821.78;4980651;28;20027;-91
2023/08/18 02:31:30;;;;;;;12.00;10.60;;;;;;;-148.15;100.00;61821.78;4974979;28;20283;-92
2023/08/18 02:33:56;;;;;;;13.10;10.33;;;;;;;-148.15;100.00;61821.78;4976191;28;20038;-92
2023/08/18 02:36:21;;;;;;;11.37;10.10;;;;;;;-148.15;100.00;61821.78;4974418;28;20027;-91
2023/08/18 02:38:46;;;;;;;12.47;10.67;;;;;;;-148.15;100.00;61821.78;4972680;28;20031;-92
2023/08/18 02:41:12;;;;;;;13.47;9.57;;;;;;;-148.15;100.00;61821.78;4972535;28;20041;-92
2023/08/18 02:43:38;;;;;;;11.70;9.93;;;;;;;-148.15;100.00;61821.78;4954157;28;20047;-92
2023/08/18 02:46:03;;;;;;;12.27;10.70;;;;;;;-148.15;100.00;61821.78;4968585;28;20031;-93
2023/08/18 02:48:29;;;;;;;12.60;10.50;;;;;;;-148.15;100.00;61821.78;4953691;28;20970;-92
2023/08/18 02:51:05;;;;;;;11.60;10.40;;;;;;;-148.15;100.00;61821.78;4971361;28;20034;-92
2023/08/18 02:53:32;;;;;;;14.70;10.43;;;;;;;-148.15;100.00;61821.78;4974752;28;20474;-92
2023/08/18 02:55:58;;;;;;;13.07;10.63;;;;;;;-148.15;100.00;61821.78;4991976;28;20030;-92
2023/08/18 02:58:25;;;;;;;15.23;10.63;;;;;;;-148.15;100.00;61821.78;4974593;28;20434;-92
2023/08/18 03:00:51;;;;;;;12.65;10.80;;;;;;;-148.15;100.00;61821.78;4990756;28;20153;-92
2023/08/18 03:03:16;;;;;;;15.43;11.73;;;;;;;-148.15;100.00;61821.78;4991975;28;20145;-92
2023/08/18 03:05:41;;;;;;;12.67;10.87;;;;;;;-148.15;100.00;61821.78;4990773;28;20045;-92
2023/08/18 03:08:07;;;;;;;16.03;10.93;;;;;;;-148.15;100.00;61821.78;4991735;28;20046;-92
2023/08/18 03:10:34;;;;;;;12.80;10.80;;;;;;;-148.15;100.00;61821.78;4992277;28;20445;-93
2023/08/18 03:13:03;;;;;;;17.25;11.23;;;;;;;-148.15;100.00;61821.78;4980025;28;20023;-92
2023/08/18 03:15:28;;;;;;;13.48;10.80;;;;;;;-148.15;100.00;61821.78;4973077;28;20030;-92
2023/08/18 03:17:53;;;;;;;14.33;11.80;;;;;;;-148.15;100.00;61821.78;4960599;28;20018;-93
2023/08/18 03:20:19;;;;;;;15.63;11.77;;;;;;;-148.15;100.00;61821.78;4972475;28;20030;-92
2023/08/18 03:22:44;;;;;;;14.57;11.45;;;;;;;-148.15;100.00;61821.78;4971209;28;20031;-92
2023/08/18 03:25:10;;;;;;;13.60;11.23;;;;;;;-148.15;100.00;61821.78;4972861;28;20470;-92
2023/08/18 03:27:35;;;;;;;15.43;11.57;;;;;;;-148.15;100.00;61821.78;4971389;28;20031;-93
2023/08/18 03:30:00;;;;;;;14.43;11.73;;;;;;;-148.15;100.00;61821.78;4983532;28;20030;-92
2023/08/18 03:32:26;;;;;;;16.80;11.10;;;;;;;-148.15;100.00;61821.78;4974737;28;20105;-92
2023/08/18 03:34:55;;;;;;;19.10;12.87;;;;;;;-148.15;100.00;61821.78;4992064;28;20277;-92
2023/08/18 03:37:21;;;;;;;14.82;11.68;;;;;;;-148.15;100.00;61821.78;4983332;28;20026;-92
2023/08/18 03:39:46;;;;;;;16.83;12.30;;;;;;;-148.15;100.00;61821.78;4987644;28;20027;-92
2023/08/18 03:42:11;;;;;;;16.40;12.40;;;;;;;-148.15;100.00;61821.78;4986485;28;20082;-92
2023/08/18 03:44:37;;;;;;;14.73;11.70;;;;;;;-148.15;100.00;61821.78;4953244;28;20054;-92
2023/08/18 03:47:02;;;;;;;13.30;11.03;;;;;;;-148.15;100.00;61821.78;4955266;28;20031;-92
2023/08/18 03:49:28;;;;;;;16.13;12.55;;;;;;;-148.15;100.00;61821.78;4953280;28;20642;-92
2023/08/18 03:51:53;;;;;;;15.73;12.43;;;;;;;-148.15;100.00;61821.78;4952146;28;20034;-93
2023/08/18 03:54:19;;;;;;;15.13;11.40;;;;;;;-148.15;100.00;61821.78;4967436;28;20039;-91
2023/08/18 03:56:44;;;;;;;21.50;12.57;;;;;;;-148.15;100.00;61821.78;4966778;28;20054;-92
2023/08/18 03:59:09;;;;;;;15.57;11.97;;;;;;;-148.15;100.00;61821.78;4952353;29;20274;-92
2023/08/18 04:01:35;;;;;;;15.80;11.77;;;;;;;-148.15;100.00;61821.78;4969389;28;20122;-92
2023/08/18 04:04:00;;;;;;;16.20;12.33;;;;;;;-148.15;100.00;61821.78;4971858;28;20027;-92
2023/08/18 04:06:25;;;;;;;16.43;11.90;;;;;;;-148.15;100.00;61821.78;4970654;28;20031;-91
2023/08/18 04:09:06;;;;;;;14.55;11.95;;;;;;;-148.15;100.00;61821.78;4971914;28;20167;-92
2023/08/18 04:11:33;;;;;;;15.93;11.67;;;;;;;-148.15;100.00;61821.78;4983967;28;20515;-92
2023/08/18 04:13:58;;;;;;;17.80;11.73;;;;;;;-148.15;100.00;61821.78;4990769;28;20041;-92
2023/08/18 04:16:23;;;;;;;15.50;11.67;;;;;;;-148.15;100.00;61821.78;4990428;28;20026;-92
2023/08/18 04:18:48;;;;;;;16.67;11.95;;;;;;;-148.15;100.00;61821.78;4989656;28;20054;-92
2023/08/18 04:21:14;;;;;;;17.40;12.17;;;;;;;-148.15;100.00;61821.78;4990550;28;20022;-92
2023/08/18 04:23:39;;;;;;;15.93;11.67;;;;;;;-148.15;100.00;61821.78;4990886;28;20081;-91
2023/08/18 04:26:04;;;;;;;16.27;11.57;;;;;;;-148.15;100.00;61821.78;4972953;28;20385;-92
2023/08/18 04:28:30;;;;;;;15.63;11.13;;;;;;;-148.15;100.00;61821.78;4986664;28;20078;-92
2023/08/18 04:30:55;;;;;;;18.27;12.13;;;;;;;-148.15;100.00;61821.78;4989263;28;20121;-92
2023/08/18 04:33:20;;;;;;;18.90;12.37;;;;;;;-148.15;100.00;61821.78;4991691;28;20026;-93
2023/08/18 04:35:46;;;;;;;18.03;11.53;;;;;;;-148.15;100.00;61821.78;4991665;28;20282;-92
2023/08/18 04:38:13;;;;;;;14.83;11.67;;;;;;;-148.15;100.00;61821.78;4995278;28;20380;-92
2023/08/18 04:40:39;;;;;;;19.55;12.85;;;;;;;-148.15;100.00;61821.78;4993896;28;20033;-92
2023/08/18 04:43:04;;;;;;;18.83;11.83;;;;;;;-148.15;100.00;61821.78;4994985;28;20074;-92
2023/08/18 04:45:30;;;;;;;15.73;11.63;;;;;;;-148.15;100.00;61821.78;4973164;28;20506;-92
2023/08/18 04:47:55;;;;;;;18.48;12.95;;;;;;;-148.15;100.00;61821.78;4974994;28;20482;-93
2023/08/18 04:50:20;;;;;;;17.73;12.03;;;;;;;-148.15;100.00;61821.78;4974783;28;20093;-93
2023/08/18 04:52:46;;;;;;;15.23;11.67;;;;;;;-148.15;100.00;61821.78;4974411;28;20029;-92
2023/08/18 04:55:11;;;;;;;15.43;11.63;;;;;;;-148.15;100.00;61821.78;4974988;28;20038;-92
2023/08/18 04:57:36;;;;;;;17.30;11.50;;;;;;;-148.15;100.00;61821.78;4974608;28;20534;-92
2023/08/18 05:00:05;;;;;;;15.80;11.30;;;;;;;-148.15;100.00;61821.78;4978941;28;20289;-92
2023/08/18 05:02:30;;;;;;;16.73;12.18;;;;;;;-148.15;100.00;61821.78;4975954;28;20023;-93
2023/08/18 05:04:55;;;;;;;17.77;11.70;;;;;;;-148.15;100.00;61821.78;4957134;28;20033;-92
2023/08/18 05:07:21;;;;;;;23.13;12.87;;;;;;;-148.15;100.00;61821.78;4979593;28;20243;-92
2023/08/18 05:09:47;;;;;;;21.27;13.67;;;;;;;-148.15;100.00;61821.78;4989488;28;20347;-91
2023/08/18 05:12:12;;;;;;;21.10;12.15;;;;;;;-148.15;100.00;61821.78;4992951;28;20018;-92
2023/08/18 05:14:38;;;;;;;22.47;13.73;;;;;;;-148.15;100.00;61821.78;4992133;28;20467;-92
2023/08/18 05:17:03;;;;;;;26.43;14.83;;;;;;;-148.15;100.00;61821.78;4993422;28;20038;-93
2023/08/18 05:19:28;;;;;;;20.97;13.70;;;;;;;-148.15;100.00;61821.78;4993021;28;20570;-91
2023/08/18 05:21:54;;;;;;;21.67;13.57;;;;;;;-148.15;100.00;61821.78;4992086;28;20041;-92
2023/08/18 05:24:20;;;;;;;21.23;13.93;;;;;;;-148.15;100.00;61821.78;4993341;28;20038;-93
2023/08/18 05:26:45;;;;;;;22.33;14.02;;;;;;;-148.15;100.00;61821.78;4991887;28;20019;-91
2023/08/18 05:29:10;;;;;;;19.60;13.67;;;;;;;-148.15;100.00;61821.78;4984128;28;20047;-92
2023/08/18 05:31:37;;;;;;;19.80;14.23;;;;;;;-148.15;100.00;61821.78;4972572;28;20521;-91
2023/08/18 05:34:03;;;;;;;21.02;14.20;;;;;;;-148.15;100.00;61821.78;4987626;28;20030;-92
2023/08/18 05:36:29;;;;;;;21.77;14.38;;;;;;;-148.15;100.00;61821.78;4993046;28;20532;-92
2023/08/18 05:38:55;;;;;;;20.50;14.30;;;;;;;-148.15;100.00;61821.78;4992575;28;20038;-92
2023/08/18 05:41:20;;;;;;;20.07;13.50;;;;;;;-148.15;100.00;61821.78;4992033;28;20081;-91
2023/08/18 05:43:46;;;;;;;21.93;14.70;;;;;;;-148.15;100.00;61821.78;4968267;28;20110;-92
2023/08/18 05:46:11;;;;;;;24.67;14.97;;;;;;;-148.15;100.00;61821.78;4964181;28;20054;-92
2023/08/18 05:48:36;;;;;;;19.63;14.00;;;;;;;-148.15;100.00;61821.78;4985179;28;20657;-86
2023/08/18 05:51:02;;;;;;;21.20;14.70;;;;;;;-148.15;100.00;61821.78;4972768;28;20101;-88
2023/08/18 05:53:29;;;;;;;25.38;14.88;;;;;;;-148.15;100.00;61821.78;4974377;28;20035;-87
2023/08/18 05:55:55;;;;;;;21.10;14.27;;;;;;;-148.15;100.00;61821.78;4988207;28;20077;-87
2023/08/18 05:58:20;;;;;;;21.20;13.07;;;;;;;-148.15;100.00;61821.78;4980990;28;20039;-87
2023/08/18 06:00:49;;;;;;;22.57;15.03;;;;;;;-148.15;100.00;61821.78;4966841;28;20106;-87
2023/08/18 06:03:16;;;;;;;20.55;14.02;;;;;;;-148.15;100.00;61821.78;4967146;28;20078;-86
2023/08/18 06:05:41;;;;;;;20.95;14.18;;;;;;;-148.15;100.00;61821.78;4973028;28;20033;-87
2023/08/18 06:08:07;;;;;;;22.30;14.50;;;;;;;-148.15;100.00;61821.78;4972428;28;20035;-86
2023/08/18 06:10:32;;;;;;;21.27;14.30;;;;;;;-148.15;100.00;61821.78;4991216;28;20077;-87
2023/08/18 06:12:57;;;;;;;18.63;13.63;;;;;;;-148.15;100.00;61821.78;4990985;28;20030;-87
2023/08/18 06:15:23;;;;;;;18.43;13.90;;;;;;;-148.15;100.00;61821.78;4974543;28;20018;-87
2023/08/18 06:17:49;;;;;;;20.73;14.20;;;;;;;-148.15;100.00;61821.78;4971820;28;20037;-86
2023/08/18 06:20:15;;;;;;;21.23;14.15;;;;;;;-148.15;100.00;61821.78;4975396;28;20031;-86
2023/08/18 06:22:40;;;;;;;20.98;14.00;;;;;;;-148.15;100.00;61821.78;4968767;28;20030;-87
2023/08/18 06:25:07;;;;;;;23.13;15.50;;;;;;;-148.15;100.00;61821.78;4953517;29;20024;-87
2023/08/18 06:27:33;;;;;;;22.30;15.02;;;;;;;-148.15;100.00;61821.78;4955061;28;20518;-87
2023/08/18 06:29:58;;;;;;;24.40;16.13;;;;;;;-148.15;100.00;61821.78;4963751;28;20022;-87
2023/08/18 06:32:23;;;;;;;25.37;16.17;;;;;;;-148.15;100.00;61821.78;4972572;28;20553;-87
2023/08/18 06:34:52;;;;;;;25.02;16.13;;;;;;;-148.15;100.00;61821.78;4972928;28;20023;-87
2023/08/18 06:37:18;;;;;;;25.53;15.47;;;;;;;-148.15;100.00;61821.78;4988922;28;20034;-87
2023/08/18 06:39:44;;;;;;;24.23;15.73;;;;;;;-148.15;100.00;61821.78;4990639;28;20022;-90
2023/08/18 06:42:09;;;;;;;24.08;16.60;;;;;;;-148.15;100.00;61821.78;4994252;28;20109;-93
2023/08/18 06:44:35;;;;;;;23.73;15.60;;;;;;;-148.15;100.00;61821.78;4996064;28;20030;-91
2023/08/18 06:47:01;;;;;;;25.30;15.77;;;;;;;-148.15;100.00;61821.78;4995376;28;20545;-91
2023/08/18 06:49:26;;;;;;;22.93;15.53;;;;;;;-148.15;100.00;61821.78;4989013;28;20319;-93
2023/08/18 06:51:52;;;;;;;22.58;15.32;;;;;;;-148.15;100.00;61821.78;4974679;28;20044;-91
2023/08/18 06:54:17;;;;;;;24.57;16.10;;;;;;;-148.15;100.00;61821.78;4993729;28;20110;-91
2023/08/18 06:56:43;;;;;;;26.40;15.90;;;;;;;-148.15;100.00;61821.78;4991960;28;20081;-90
2023/08/18 06:59:09;;;;;;;24.80;15.07;;;;;;;-148.15;100.00;61821.78;4993210;28;20028;-92
2023/08/18 07:01:34;;;;;;;26.90;16.83;;;;;;;-148.15;100.00;61821.78;4992542;28;20030;-90
2023/08/18 07:03:59;;;;;;;24.60;15.80;;;;;;;-148.15;100.00;61821.78;4983912;28;20035;-91
2023/08/18 07:06:25;;;;;;;27.53;15.87;;;;;;;-148.15;100.00;61821.78;4972939;28;20030;-90
2023/08/18 07:08:50;;;;;;;26.00;17.00;;;;;;;-148.15;100.00;61821.78;4989544;28;20030;-90
2023/08/18 07:11:15;;;;;;;22.50;16.00;;;;;;;-148.15;100.00;61821.78;4991753;28;20042;-90
2023/08/18 07:13:42;;;;;;;25.80;16.70;;;;;;;-148.15;100.00;61821.78;4991938;28;20027;-91
2023/08/18 07:16:08;;;;;;;24.33;15.70;;;;;;;-148.15;100.00;61821.78;4991151;28;20138;-92
2023/08/18 07:18:33;;;;;;;24.57;15.63;;;;;;;-148.15;100.00;61821.78;4991759;28;20478;-90
2023/08/18 07:20:59;;;;;;;28.07;17.37;;;;;;;-148.15;100.00;61821.78;4959290;28;20035;-91
2023/08/18 07:23:25;;;;;;;24.58;16.27;;;;;;;-148.15;100.00;61821.78;4953589;29;20023;-90
2023/08/18 07:25:50;;;;;;;29.85;16.58;;;;;;;-148.15;100.00;61821.78;4955032;28;20110;-91
2023/08/18 07:28:15;;;;;;;28.10;16.57;;;;;;;-148.15;100.00;61821.78;4985018;28;20065;-91
2023/08/18 07:30:41;;;;;;;27.70;16.93;;;;;;;-148.15;100.00;61821.78;4992987;28;20410;-91
2023/08/18 07:33:06;;;;;;;29.80;17.90;;;;;;;-148.15;100.00;61821.78;4994873;28;20034;-90
2023/08/18 07:35:32;;;;;;;26.07;17.13;;;;;;;-148.15;100.00;61821.78;4994181;28;20281;-91
2023/08/18 07:37:57;;;;;;;25.13;16.53;;;;;;;-148.15;100.00;61821.78;4992152;28;20561;-91
2023/08/18 07:40:23;;;;;;;26.20;17.40;;;;;;;-148.15;100.00;61821.78;4995102;28;20022;-92
2023/08/18 07:42:48;;;;;;;29.20;17.48;;;;;;;-148.15;100.00;61821.78;4979196;28;20034;-91
2023/08/18 07:45:14;;;;;;;29.83;18.00;;;;;;;-148.15;100.00;61821.78;4978679;28;20483;-91
2023/08/18 07:47:40;;;;;;;24.23;17.45;;;;;;;-148.15;100.00;61821.78;4979766;28;20023;-92
2023/08/18 07:50:08;;;;;;;26.13;17.80;;;;;;;-148.15;100.00;61821.78;4978885;28;20038;-92
2023/08/18 07:52:34;;;;;;;26.23;17.15;;;;;;;-148.15;100.00;61821.78;4978985;28;20030;-92
2023/08/18 07:55:00;;;;;;;23.27;16.58;;;;;;;-148.15;100.00;61821.78;4972106;28;20057;-91
2023/08/18 07:57:26;;;;;;;27.40;16.70;;;;;;;-148.15;100.00;61821.78;4971473;28;20025;-92
2023/08/18 07:59:52;;;;;;;23.45;16.77;;;;;;;-148.15;100.00;61821.78;4953259;28;20027;-91
2023/08/18 08:02:17;;;;;;;22.33;16.47;;;;;;;-148.15;100.00;61821.78;4952627;29;20038;-92
2023/08/18 08:04:42;;;;;;;23.50;17.27;;;;;;;-148.15;100.00;61821.78;4952144;28;20090;-93
2023/08/18 08:07:08;;;;;;;23.50;16.20;;;;;;;-148.15;100.00;61821.78;4952384;28;20050;-92
2023/08/18 08:09:33;;;;;;;22.07;14.00;;;;;;;-148.15;100.00;61821.78;4952439;28;20271;-94
2023/08/18 08:11:58;;;;;;;23.00;14.93;;;;;;;-148.15;100.00;61821.78;4967652;28;20058;-91
2023/08/18 08:14:24;;;;;;;23.30;13.57;;;;;;;-148.15;100.00;61821.78;4990860;28;20038;-93
2023/08/18 08:16:49;;;;;;;24.93;14.07;;;;;;;-148.15;100.00;61821.78;4990589;28;20394;-92
2023/08/18 08:19:15;;;;;;;22.93;14.10;;;;;;;-148.15;100.00;61821.78;4990899;28;20069;-91
2023/08/18 08:21:41;;;;;;;19.30;13.80;;;;;;;-148.15;100.00;61821.78;4989453;28;20297;-93
2023/08/18 08:24:07;;;;;;;17.55;13.52;;;;;;;-148.15;100.00;61821.78;4991081;28;20389;-90
2023/08/18 08:26:32;;;;;;;19.02;13.80;;;;;;;-148.15;100.00;61821.78;4992215;28;20033;-91
2023/08/18 08:28:58;;;;;;;17.27;13.53;;;;;;;-148.15;100.00;61821.78;4983432;28;20477;-92
2023/08/18 08:31:23;;;;;;;20.30;14.87;;;;;;;-148.15;100.00;61821.78;4991096;28;20038;-91
2023/08/18 08:33:48;;;;;;;20.42;14.38;;;;;;;-148.15;100.00;61821.78;4953439;28;20360;-90
2023/08/18 08:36:14;;;;;;;19.53;13.33;;;;;;;-148.15;100.00;61821.78;4952137;28;20035;-90
2023/08/18 08:38:39;;;;;;;17.73;13.30;;;;;;;-148.15;100.00;61821.78;4951164;28;20039;-90
2023/08/18 08:41:07;;;;;;;18.33;13.17;;;;;;;-148.15;100.00;61821.78;4955080;28;20051;-89
2023/08/18 08:43:32;;;;;;;18.75;13.23;;;;;;;-148.15;100.00;61821.78;4963904;28;20058;-88
2023/08/18 08:45:58;;;;;;;18.13;13.63;;;;;;;-148.15;100.00;61821.78;4973682;28;20031;-90
2023/08/18 08:48:29;;;;;;;20.10;14.23;;;;;;;-148.15;100.00;61821.78;4972065;28;20034;-90
2023/08/18 08:50:58;;;;;;;16.88;12.73;;;;;;;-148.15;100.00;61821.78;4960987;28;20066;-89
2023/08/18 08:53:49;;;;;;;21.77;14.15;;;;;;;-148.15;100.00;61821.78;4972061;28;20023;-88
2023/08/18 08:56:17;;;;;;;17.23;13.30;;;;;;;-148.15;100.00;61821.78;4953300;28;20031;-90
2023/08/18 08:58:43;;;;;;;18.45;14.05;;;;;;;-148.15;100.00;61821.78;4975440;28;20152;-89
2023/08/18 09:01:09;;;;;;;18.25;14.13;;;;;;;-148.15;100.00;61821.78;4992775;28;20037;-90
2023/08/18 09:03:34;;;;;;;19.23;14.27;;;;;;;-148.15;100.00;61821.78;4989978;28;20035;-90
2023/08/18 09:06:00;;;;;;;20.25;14.32;;;;;;;-148.15;100.00;61821.78;4992583;28;20113;-90
2023/08/18 09:08:25;;;;;;;19.60;14.20;;;;;;;-148.15;100.00;61821.78;4990151;28;20030;-90
2023/08/18 09:10:51;;;;;;;20.83;14.40;;;;;;;-148.15;100.00;61821.78;4989949;28;20121;-88
2023/08/18 09:13:16;;;;;;;18.58;14.40;;;;;;;-148.15;100.00;61821.78;4989202;28;20022;-88
2023/08/18 09:15:44;;;;;;;18.90;13.80;;;;;;;-148.15;100.00;61821.78;4978288;28;20035;-89
2023/08/18 09:18:13;;;;;;;18.92;13.80;;;;;;;-148.15;100.00;61821.78;4953586;28;20090;-87
2023/08/18 09:20:38;;;;;;;18.85;13.32;;;;;;;-148.15;100.00;61821.78;4990194;28;20046;-87
2023/08/18 09:23:04;;;;;;;19.40;14.27;;;;;;;-148.15;100.00;61821.78;4993557;28;20057;-87
2023/08/18 09:25:35;;;;;;;18.77;14.47;;;;;;;-148.15;100.00;61821.78;4993765;28;20113;-88
2023/08/18 09:28:03;;;;;;;18.17;13.60;;;;;;;-148.15;100.00;61821.78;4991340;28;20517;-87
2023/08/18 09:30:30;;;;;;;22.77;14.90;;;;;;;-148.15;100.00;61821.78;4971222;28;20484;-87
2023/08/18 09:32:55;;;;;;;24.65;15.65;;;;;;;-148.15;100.00;61821.78;4954309;28;20035;-86
2023/08/18 09:35:20;;;;;;;23.13;15.33;;;;;;;-148.15;100.00;61821.78;4955043;29;20038;-86
2023/08/18 09:37:59;;;;;;;19.13;15.05;;;;;;;-148.15;100.00;61821.78;4954112;28;20090;-89
2023/08/18 09:40:25;;;;;;;19.33;14.77;;;;;;;-148.15;100.00;61821.78;4955691;28;20028;-87
2023/08/18 09:42:51;;;;;;;21.83;15.88;;;;;;;-148.15;100.00;61821.78;4991272;28;20025;-87
2023/08/18 09:45:19;;;;;;;23.27;16.60;;;;;;;-148.15;100.00;61821.78;4991867;28;20482;-88
2023/08/18 09:47:49;;;;;;;21.67;15.67;;;;;;;-148.15;100.00;61821.78;4992215;28;20030;-89
2023/08/18 09:50:14;;;;;;;21.23;15.73;;;;;;;-148.15;100.00;61821.78;4975742;28;20340;-90
2023/08/18 09:52:42;;;;;;;22.20;15.77;;;;;;;-148.15;100.00;61821.78;4992759;28;20034;-88
2023/08/18 09:55:13;;;;;;;19.27;15.80;;;;;;;-148.15;100.00;61821.78;4993165;28;20026;-87
2023/08/18 09:57:55;;;;;;;21.25;14.95;;;;;;;-148.15;100.00;61821.78;4991936;28;20117;-88
2023/08/18 10:00:22;;;;;;;20.80;15.55;;;;;;;-148.15;100.00;61821.78;4990969;28;20106;-86
2023/08/18 10:02:51;;;;;;;21.77;15.30;;;;;;;-148.15;100.00;61821.78;4992344;28;20054;-86
2023/08/18 10:05:17;;;;;;;24.17;17.30;;;;;;;-148.15;100.00;61821.78;4988312;28;20301;-84
2023/08/18 10:07:43;;;;;;;19.90;15.13;;;;;;;-148.15;100.00;61821.78;4991622;28;20504;-85
2023/08/18 10:10:09;;;;;;;21.85;16.15;;;;;;;-148.15;100.00;61821.78;4992842;28;20030;-86
2023/08/18 10:12:34;;;;;;;21.27;15.53;;;;;;;-148.15;100.00;61821.78;4991101;28;20027;-85
2023/08/18 10:15:01;;;;;;;22.67;17.03;;;;;;;-148.15;100.00;61821.78;4993034;28;20105;-85
2023/08/18 10:17:27;;;;;;;18.85;15.18;;;;;;;-148.15;100.00;61821.78;4991668;28;20026;-85
2023/08/18 10:20:00;;;;;;;19.80;15.82;;;;;;;-148.15;100.00;61821.78;4991395;28;20545;-87
2023/08/18 10:22:30;;;;;;;23.23;17.23;;;;;;;-148.15;100.00;61821.78;4992619;28;20478;-88
2023/08/18 10:24:56;;;;;;;24.07;16.53;;;;;;;-148.15;100.00;61821.78;4993225;28;20054;-93
2023/08/18 10:27:27;;;;;;;17.93;15.80;;;;;;;-148.15;100.00;61821.78;4993270;28;20685;-90
2023/08/18 10:30:21;;;;;;;24.88;17.40;;;;;;;-148.15;100.00;61821.78;4992233;28;20023;-86
2023/08/18 10:32:46;;;;;;;20.80;15.85;;;;;;;-148.15;100.00;61821.78;4986427;28;20113;-89
2023/08/18 10:35:20;;;;;;;21.70;17.13;;;;;;;-148.15;100.00;61821.78;4989804;28;20101;-87
2023/08/18 10:37:55;;;;;;;22.70;15.95;;;;;;;-148.15;100.00;61821.78;4953095;28;20035;-88
2023/08/18 10:40:30;;;;;;;24.45;16.85;;;;;;;-148.15;100.00;61821.78;4952739;28;20039;-86
2023/08/18 10:43:07;;;;;;;23.83;18.48;;;;;;;-148.15;100.00;61821.78;4959121;28;20475;-90
2023/08/18 10:45:34;;;;;;;25.52;17.88;;;;;;;-148.15;100.00;61821.78;4992375;28;20077;-86
2023/08/18 10:48:02;;;;;;;26.03;17.93;;;;;;;-148.15;100.00;61821.78;4992391;28;20038;-90
2023/08/18 10:50:29;;;;;;;26.73;19.80;;;;;;;-148.15;100.00;61821.78;4990368;28;20777;-90
2023/08/18 10:52:55;;;;;;;24.02;18.08;;;;;;;-148.15;100.00;61821.78;4991438;28;20470;-86
2023/08/18 10:55:25;;;;;;;23.13;17.73;;;;;;;-148.15;100.00;61821.78;4990477;28;20077;-86